»·PEaware :: N32314 KSBA-KBUR

N32314 :: KSBA-KBUR

FLIGHT INFORMATION

Flight Status: Arrived
Operator: Privately registered:
United States
More flights under this callsign
Pilot: John O. (31453)
Aircraft: CESSNA 172 SKYHAWK
(C172)
More flights by this aircraft type
Origin: KSBA Santa Barbara Mun
United States
Destination: KBUR Bob Hope-Burbank
United States
More flights between these airports :: More routes between these airports
Route: FIM VOR
File this flight plan on PilotEdge
Remarks:
Altitude:
(Current/Filed)
5,500ft
Speed:
(Current/Filed)
110kts
Departed: 24-Sep-20 10:19 AM
Arrived: 24-Sep-20 11:04 AM
Distance/Time
Traveled:
75nm/0:45
Distance/Time
To Go:
Arrived

Flight Plot

Page will automatically refresh every two minutes.

Flight plan parsing failed; only flown route is shown


Map Options




Map Legend


Flown Route
Filed Route
Departure Airport
Arrival Airport
Navaid (VOR, NDB)
Fix

Horizontal Profiles

Position Reports

Time Latitude Longitude Heading Altitude Ground
Speed
24-Sep-20 09:56 34.422619 -119.836444 164 16ft 0kts
24-Sep-20 09:57 34.422619 -119.836444 164 16ft 0kts
24-Sep-20 09:58 34.422619 -119.836444 164 16ft 0kts
24-Sep-20 09:59 34.422619 -119.836444 164 16ft 0kts
24-Sep-20 10:00 34.422619 -119.836444 164 16ft 0kts
24-Sep-20 10:01 34.422619 -119.836444 164 16ft 0kts
24-Sep-20 10:02 34.422619 -119.836444 164 16ft 0kts
24-Sep-20 10:04 34.422619 -119.836444 164 16ft 0kts
24-Sep-20 10:05 34.422619 -119.836444 164 16ft 0kts
24-Sep-20 10:06 34.422619 -119.836444 164 16ft 0kts
24-Sep-20 10:07 34.422619 -119.836444 164 16ft 0kts
24-Sep-20 10:08 34.422619 -119.836444 164 16ft 0kts
24-Sep-20 10:09 34.422619 -119.836444 164 16ft 0kts
24-Sep-20 10:10 34.422619 -119.836444 164 16ft 0kts
24-Sep-20 10:11 34.422619 -119.836444 164 16ft 0kts
24-Sep-20 10:12 34.422619 -119.836444 164 16ft 0kts
24-Sep-20 10:13 34.423099 -119.837318 346 17ft 12kts
24-Sep-20 10:14 34.424315 -119.837616 339 19ft 19kts
24-Sep-20 10:15 34.429341 -119.839164 345 12ft 17kts
24-Sep-20 10:16 34.430696 -119.839816 260 11ft 0kts
24-Sep-20 10:17 34.430696 -119.839816 260 11ft 0kts
24-Sep-20 10:18 34.430617 -119.840113 254 11ft 5kts
24-Sep-20 10:18 34.418810 -119.836719 170 250ft 79kts
24-Sep-20 10:20 34.391747 -119.829433 168 1122ft 87kts
24-Sep-20 10:21 34.365772 -119.819814 166 1494ft 114kts
24-Sep-20 10:21 34.340850 -119.811897 166 1500ft 109kts
24-Sep-20 10:23 34.307717 -119.798581 121 1504ft 110kts
24-Sep-20 10:24 34.303528 -119.761122 85 1930ft 114kts
24-Sep-20 10:24 34.307654 -119.730112 81 2369ft 110kts
24-Sep-20 10:25 34.309703 -119.693972 86 2971ft 106kts
24-Sep-20 10:27 34.312051 -119.653004 86 3671ft 103kts
24-Sep-20 10:27 34.313700 -119.624421 86 4173ft 101kts
24-Sep-20 10:28 34.315640 -119.590834 85 4774ft 98kts
24-Sep-20 10:29 34.326290 -119.561267 48 5373ft 94kts
24-Sep-20 10:30 34.347111 -119.534559 46 5495ft 119kts
24-Sep-20 10:31 34.370187 -119.505129 46 5500ft 121kts
24-Sep-20 10:32 34.382258 -119.470303 92 5499ft 122kts
24-Sep-20 10:33 34.380450 -119.429165 93 5498ft 122kts
24-Sep-20 10:34 34.378649 -119.388009 93 5501ft 122kts
24-Sep-20 10:35 34.372937 -119.349719 83 5496ft 121kts
24-Sep-20 10:36 34.385969 -119.312037 65 5498ft 122kts
24-Sep-20 10:37 34.373904 -119.277059 90 5499ft 122kts
24-Sep-20 10:38 34.372098 -119.236019 93 5499ft 122kts
24-Sep-20 10:39 34.370288 -119.194882 93 5499ft 122kts
24-Sep-20 10:40 34.368508 -119.153832 93 5500ft 122kts
24-Sep-20 10:41 34.366725 -119.112790 93 5500ft 122kts
24-Sep-20 10:42 34.364949 -119.071841 93 5501ft 122kts
24-Sep-20 10:43 34.363165 -119.030766 93 5500ft 122kts
24-Sep-20 10:44 34.361391 -118.989811 93 5499ft 122kts
24-Sep-20 10:45 34.359642 -118.948700 93 5499ft 122kts
24-Sep-20 10:46 34.357920 -118.907644 93 5500ft 122kts
24-Sep-20 10:47 34.351447 -118.868750 146 5501ft 121kts
24-Sep-20 10:48 34.339328 -118.838263 65 5537ft 120kts
24-Sep-20 10:49 34.336843 -118.800744 154 5506ft 120kts
24-Sep-20 10:50 34.320582 -118.767360 111 5499ft 114kts
24-Sep-20 10:51 34.309409 -118.732367 111 5499ft 109kts
24-Sep-20 10:52 34.298499 -118.698078 111 5500ft 109kts
24-Sep-20 10:53 34.287548 -118.663620 110 5499ft 109kts
24-Sep-20 10:54 34.276623 -118.629288 111 5497ft 108kts
24-Sep-20 10:55 34.265922 -118.595635 111 5367ft 117kts
24-Sep-20 10:56 34.252612 -118.553787 111 4118ft 141kts
24-Sep-20 10:57 34.239017 -118.510234 94 2974ft 132kts
24-Sep-20 10:58 34.232827 -118.472435 118 2966ft 114kts
24-Sep-20 10:59 34.212042 -118.444506 137 2852ft 104kts
24-Sep-20 11:00 34.198801 -118.419250 101 2028ft 77kts
24-Sep-20 11:01 34.197938 -118.393053 88 1452ft 77kts
24-Sep-20 11:02 34.197892 -118.367802 90 736ft 67kts
24-Sep-20 11:03 34.198583 -118.360238 0 717ft 0kts
24-Sep-20 11:04 34.198583 -118.360238 0 717ft 0kts
24-Sep-20 11:05 34.199763 -118.358913 293 719ft 8kts
24-Sep-20 11:06 34.199802 -118.359025 293 719ft 0kts
24-Sep-20 11:07 34.199802 -118.359025 293 719ft 0kts
24-Sep-20 11:08 34.199802 -118.359025 293 719ft 0kts
24-Sep-20 11:09 34.199802 -118.359025 293 719ft 0kts
24-Sep-20 11:10 34.199802 -118.359025 293 719ft 0kts
24-Sep-20 11:11 34.199802 -118.359025 293 719ft 0kts
24-Sep-20 11:12 34.199802 -118.359025 293 719ft 0kts
24-Sep-20 11:13 34.199802 -118.359025 293 719ft 0kts
24-Sep-20 11:14 34.199802 -118.359025 293 719ft 0kts
24-Sep-20 11:15 34.199802 -118.359025 293 719ft 0kts
24-Sep-20 11:16 34.199802 -118.359025 293 719ft 0kts
24-Sep-20 11:17 34.199802 -118.359025 293 719ft 0kts

Navigation Log

Ident Type
Flight plan parsing failed, navigation log unavailable